createdAt,value
2022-09-06T00:00:25.278Z,13.88
2022-09-06T00:02:52.780Z,15.13
2022-09-06T00:05:20.882Z,15.52
2022-09-06T00:07:48.400Z,16.65
2022-09-06T00:10:16.253Z,16.38
2022-09-06T00:12:43.782Z,16.63
2022-09-06T00:15:11.716Z,17.77
2022-09-06T00:17:39.218Z,18.40
2022-09-06T00:20:09.403Z,19.80
2022-09-06T00:22:37.674Z,15.40
2022-09-06T00:25:06.520Z,16.10
2022-09-06T00:27:35.132Z,14.70
2022-09-06T00:30:04.837Z,14.38
2022-09-06T00:32:33.059Z,18.25
2022-09-06T00:35:00.607Z,13.30
2022-09-06T00:37:28.036Z,16.30
2022-09-06T00:39:55.503Z,16.52
2022-09-06T00:42:23.106Z,16.33
2022-09-06T00:44:50.981Z,16.13
2022-09-06T00:47:19.378Z,14.70
2022-09-06T00:49:51.491Z,15.57
2022-09-06T00:52:20.019Z,16.88
2022-09-06T00:54:50.223Z,13.60
2022-09-06T00:57:18.950Z,13.53
2022-09-06T00:59:48.181Z,13.75
2022-09-06T01:02:15.760Z,15.95
2022-09-06T01:04:45.650Z,18.17
2022-09-06T01:07:35.780Z,21.83
2022-09-06T01:10:21.360Z,22.63
2022-09-06T01:12:58.806Z,21.38
2022-09-06T01:16:09.468Z,18.30
2022-09-06T01:18:48.971Z,18.75
2022-09-06T01:21:25.226Z,13.50
2022-09-06T01:24:17.691Z,18.48
2022-09-06T01:27:12.943Z,11.98
2022-09-06T01:29:53.138Z,14.25
2022-09-06T01:32:51.706Z,11.57
2022-09-06T01:35:42.484Z,13.82
2022-09-06T01:38:10.742Z,15.55
2022-09-06T01:40:38.254Z,13.07
2022-09-06T01:43:11.114Z,15.25
2022-09-06T01:46:03.290Z,12.77
2022-09-06T01:48:39.759Z,14.00
2022-09-06T01:51:10.153Z,17.08
2022-09-06T01:54:14.494Z,15.55
2022-09-06T01:57:00.587Z,12.65
2022-09-06T02:00:02.314Z,14.95
2022-09-06T02:02:40.928Z,14.70
2022-09-06T02:05:48.628Z,13.57
2022-09-06T02:08:28.364Z,15.20
2022-09-06T02:11:00.538Z,13.90
2022-09-06T02:13:33.358Z,18.60
2022-09-06T02:16:06.713Z,14.65
2022-09-06T02:18:44.022Z,15.85
2022-09-06T02:21:14.995Z,17.38
2022-09-06T02:23:43.686Z,16.83
2022-09-06T02:26:18.905Z,16.05
2022-09-06T02:28:46.678Z,18.05
2022-09-06T02:31:24.265Z,16.27
2022-09-06T02:33:52.078Z,16.50
2022-09-06T02:36:20.140Z,14.00
2022-09-06T02:38:48.101Z,16.70
2022-09-06T02:41:19.646Z,17.38
2022-09-06T02:43:47.119Z,18.13
2022-09-06T02:46:15.183Z,16.48
2022-09-06T02:48:42.713Z,17.48
2022-09-06T02:51:10.416Z,14.95
2022-09-06T02:53:38.176Z,16.73
2022-09-06T02:56:05.866Z,20.35
2022-09-06T02:58:33.334Z,19.23
2022-09-06T03:01:00.796Z,17.77
2022-09-06T03:03:28.804Z,19.23
2022-09-06T03:05:56.723Z,16.35
2022-09-06T03:08:26.531Z,18.13
2022-09-06T03:10:57.062Z,16.65
2022-09-06T03:13:25.135Z,16.98
2022-09-06T03:15:54.455Z,16.35
2022-09-06T03:18:22.679Z,14.80
2022-09-06T03:20:51.223Z,12.25
2022-09-06T03:23:20.176Z,17.75
2022-09-06T03:25:47.759Z,16.45
2022-09-06T03:28:15.694Z,15.00
2022-09-06T03:30:45.776Z,16.92
2022-09-06T03:33:13.436Z,18.30
2022-09-06T03:35:42.053Z,14.30
2022-09-06T03:38:09.590Z,16.92
2022-09-06T03:40:37.046Z,17.90
2022-09-06T03:43:04.481Z,15.85
2022-09-06T03:45:31.985Z,14.68
2022-09-06T03:47:59.471Z,16.05
2022-09-06T03:50:26.883Z,14.55
2022-09-06T03:52:54.281Z,15.32
2022-09-06T03:55:21.696Z,14.05
2022-09-06T03:57:49.188Z,15.27
2022-09-06T04:00:16.827Z,17.17
2022-09-06T04:02:44.347Z,17.15
2022-09-06T04:05:13.474Z,19.63
2022-09-06T04:07:42.693Z,18.67
2022-09-06T04:10:10.350Z,21.27
2022-09-06T04:12:39.422Z,20.80
2022-09-06T04:15:07.336Z,26.10
2022-09-06T04:17:34.832Z,21.98
2022-09-06T04:20:03.054Z,20.80
2022-09-06T04:22:30.982Z,22.13
2022-09-06T04:24:58.489Z,18.92
2022-09-06T04:27:25.939Z,22.08
2022-09-06T04:29:53.514Z,23.77
2022-09-06T04:32:20.978Z,19.75
2022-09-06T04:34:48.486Z,17.45
2022-09-06T04:37:20.050Z,19.90
2022-09-06T04:39:47.881Z,24.98
2022-09-06T04:42:15.622Z,20.83
2022-09-06T04:44:43.066Z,20.90
2022-09-06T04:47:15.533Z,16.38
2022-09-06T04:49:43.381Z,17.52
2022-09-06T04:52:11.935Z,21.27
2022-09-06T04:54:39.574Z,19.80
2022-09-06T04:57:07.095Z,14.07
2022-09-06T04:59:34.719Z,17.60
2022-09-06T05:02:02.221Z,23.98
2022-09-06T05:04:29.721Z,14.98
2022-09-06T05:07:05.125Z,13.32
2022-09-06T05:09:33.721Z,19.00
2022-09-06T05:12:02.019Z,15.18
2022-09-06T05:14:29.870Z,12.13
2022-09-06T05:16:57.465Z,15.75
2022-09-06T05:19:25.057Z,15.55
2022-09-06T05:21:53.023Z,13.23
2022-09-06T05:24:21.038Z,13.32
2022-09-06T05:26:48.539Z,16.80
2022-09-06T05:29:16.032Z,16.42
2022-09-06T05:31:43.532Z,13.93
2022-09-06T05:34:13.527Z,18.75
2022-09-06T05:36:42.146Z,14.98
2022-09-06T05:39:09.649Z,14.27
2022-09-06T05:41:37.148Z,17.85
2022-09-06T05:44:04.713Z,18.77
2022-09-06T05:46:32.230Z,17.98
2022-09-06T05:49:04.813Z,16.52
2022-09-06T05:51:32.924Z,22.02
2022-09-06T05:54:00.540Z,23.00
2022-09-06T05:56:28.019Z,17.17
2022-09-06T05:58:55.701Z,26.83
2022-09-06T06:01:26.674Z,17.23
2022-09-06T06:06:29.252Z,19.50
2022-09-06T06:08:57.012Z,18.93
2022-09-06T06:11:26.366Z,23.23
2022-09-06T06:13:54.379Z,18.00
2022-09-06T06:16:23.075Z,16.30
2022-09-06T06:18:52.571Z,20.45
2022-09-06T06:21:25.342Z,15.90
2022-09-06T06:23:55.553Z,19.55
2022-09-06T06:26:23.649Z,16.03
2022-09-06T06:28:51.783Z,16.90
2022-09-06T06:31:21.343Z,16.55
2022-09-06T06:33:49.188Z,25.00
2022-09-06T06:36:16.552Z,29.42
2022-09-06T06:38:45.706Z,37.85
2022-09-06T06:41:15.810Z,35.15
2022-09-06T06:43:43.640Z,35.13
2022-09-06T06:46:13.780Z,32.33
2022-09-06T06:48:43.505Z,32.67
2022-09-06T06:51:13.095Z,22.80
2022-09-06T06:53:40.717Z,20.77
2022-09-06T06:56:38.476Z,20.58
2022-09-06T06:59:07.942Z,19.45
2022-09-06T07:01:36.802Z,21.05
2022-09-06T07:04:05.468Z,17.45
2022-09-06T07:12:25.981Z,26.02
2022-09-06T07:14:53.519Z,20.42
2022-09-06T07:17:21.073Z,21.05
2022-09-06T07:22:35.861Z,23.42
2022-09-06T07:25:04.691Z,20.15
2022-09-06T07:27:48.490Z,20.23
2022-09-06T07:30:17.100Z,23.42
2022-09-06T07:32:44.566Z,23.05
2022-09-06T07:35:14.087Z,21.88
2022-09-06T07:37:41.681Z,18.85
2022-09-06T07:40:10.462Z,19.08
2022-09-06T07:42:38.200Z,24.85
2022-09-06T07:45:06.109Z,21.55
2022-09-06T07:53:13.830Z,21.67
2022-09-06T07:55:47.421Z,17.25
2022-09-06T07:58:15.384Z,21.25
2022-09-06T08:00:43.147Z,21.65
2022-09-06T08:03:10.629Z,19.33
2022-09-06T08:11:14.250Z,15.80
2022-09-06T08:13:42.527Z,15.75
2022-09-06T08:16:11.921Z,17.77
2022-09-06T08:18:39.612Z,20.02
2022-09-06T08:21:12.439Z,13.65
2022-09-06T08:23:44.250Z,11.80
2022-09-06T08:26:12.270Z,11.77
2022-09-06T08:28:39.820Z,20.63
2022-09-06T08:31:15.732Z,17.05
2022-09-06T08:33:44.550Z,16.25
2022-09-06T08:36:12.339Z,13.00
2022-09-06T08:38:40.122Z,11.93
2022-09-06T08:41:10.310Z,11.27
2022-09-06T08:43:38.995Z,15.27
2022-09-06T08:46:08.751Z,12.35
2022-09-06T08:48:39.920Z,11.45
2022-09-06T08:53:44.627Z,16.00
2022-09-06T08:56:28.610Z,11.68
2022-09-06T08:59:12.478Z,9.40
2022-09-06T09:02:04.217Z,9.15
2022-09-06T09:04:35.211Z,13.20
2022-09-06T09:07:30.665Z,9.40
2022-09-06T09:09:59.852Z,7.55
2022-09-06T09:12:30.467Z,6.75
2022-09-06T09:15:05.543Z,8.27
2022-09-06T09:17:35.560Z,10.48
2022-09-06T09:20:04.122Z,5.70
2022-09-06T09:22:31.822Z,7.43
2022-09-06T09:25:00.182Z,8.48
2022-09-06T09:27:29.016Z,6.05
2022-09-06T09:32:50.187Z,5.93
2022-09-06T09:35:26.340Z,4.35
2022-09-06T09:38:19.387Z,12.27
2022-09-06T09:40:56.801Z,4.13
2022-09-06T09:43:32.549Z,6.80
2022-09-06T09:46:34.671Z,4.00
2022-09-06T09:49:02.144Z,7.53
2022-09-06T09:51:31.201Z,4.63
2022-09-06T09:54:01.015Z,6.60
2022-09-06T09:56:43.617Z,5.40
2022-09-06T09:59:46.011Z,3.17
2022-09-06T10:02:18.830Z,8.00
2022-09-06T10:04:50.045Z,5.60
2022-09-06T10:07:23.249Z,7.70
2022-09-06T10:10:10.967Z,7.78
2022-09-06T10:12:41.143Z,6.00
2022-09-06T10:15:31.477Z,7.60
2022-09-06T10:17:59.096Z,6.47
2022-09-06T10:20:47.215Z,8.98
2022-09-06T10:26:39.241Z,12.38
2022-09-06T10:29:11.838Z,17.15
2022-09-06T10:31:50.955Z,10.88
2022-09-06T10:34:21.173Z,18.77
2022-09-06T10:37:36.786Z,11.13
2022-09-06T10:40:08.983Z,17.65
2022-09-06T10:42:45.654Z,7.72
2022-09-06T10:45:33.341Z,8.95
2022-09-06T10:48:17.947Z,8.68
2022-09-06T10:51:00.361Z,14.02
2022-09-06T10:53:44.382Z,10.90
2022-09-06T10:56:17.138Z,16.77
2022-09-06T11:02:09.970Z,6.70
2022-09-06T11:07:32.202Z,10.20
2022-09-06T11:10:09.825Z,6.07
2022-09-06T11:13:00.463Z,7.00
2022-09-06T11:15:34.456Z,5.72
2022-09-06T11:18:15.536Z,6.28
2022-09-06T11:21:03.182Z,4.85
2022-09-06T11:23:50.603Z,3.83
2022-09-06T11:26:42.497Z,6.03
2022-09-06T11:29:18.962Z,8.63
2022-09-06T11:32:25.514Z,6.53
2022-09-06T11:34:58.091Z,6.97
2022-09-06T11:37:28.175Z,3.83
2022-09-06T11:42:53.108Z,2.55
2022-09-06T11:45:39.425Z,7.75
2022-09-06T11:48:27.342Z,5.75
2022-09-06T11:50:55.035Z,9.77
2022-09-06T11:53:25.806Z,13.40
2022-09-06T11:56:02.555Z,2.63
2022-09-06T11:58:41.748Z,12.98
2022-09-06T12:01:16.735Z,8.43
2022-09-06T12:04:09.225Z,5.93
2022-09-06T12:06:40.946Z,7.70
2022-09-06T12:09:34.576Z,4.55
2022-09-06T12:12:02.914Z,3.67
2022-09-06T12:14:42.839Z,5.07
2022-09-06T12:17:11.571Z,6.25
2022-09-06T12:19:45.216Z,2.55
2022-09-06T12:22:28.006Z,8.80
2022-09-06T12:25:07.046Z,3.80
2022-09-06T12:27:40.185Z,2.90
2022-09-06T12:30:11.921Z,5.35
2022-09-06T12:32:50.277Z,7.18
2022-09-06T12:38:24.255Z,7.25
2022-09-06T12:40:56.514Z,4.15
2022-09-06T12:43:24.571Z,2.90
2022-09-06T12:45:53.011Z,8.70
2022-09-06T12:48:36.003Z,4.55
2022-09-06T12:51:05.888Z,7.53
2022-09-06T12:53:34.976Z,5.90
2022-09-06T12:56:08.114Z,4.63
2022-09-06T12:58:36.703Z,5.22
2022-09-06T13:01:31.161Z,4.70
2022-09-06T13:04:20.359Z,8.45
2022-09-06T13:06:49.208Z,3.63
2022-09-06T13:09:20.819Z,4.70
2022-09-06T13:11:52.206Z,4.15
2022-09-06T13:14:27.825Z,6.00
2022-09-06T13:16:59.374Z,4.45
2022-09-06T13:19:32.733Z,5.80
2022-09-06T13:22:01.217Z,8.70
2022-09-06T13:24:37.424Z,7.38
2022-09-06T13:27:31.755Z,5.82
2022-09-06T13:30:06.893Z,5.50
2022-09-06T13:32:35.420Z,3.80
2022-09-06T13:35:03.915Z,5.78
2022-09-06T13:37:34.130Z,6.97
2022-09-06T13:40:05.614Z,4.30
2022-09-06T13:42:37.342Z,5.78
2022-09-06T13:45:30.186Z,4.53
2022-09-06T13:48:13.017Z,6.03
2022-09-06T13:50:45.222Z,4.68
2022-09-06T13:53:18.902Z,6.50
2022-09-06T13:55:46.467Z,8.45
2022-09-06T13:58:13.866Z,4.10
2022-09-06T14:00:41.467Z,5.20
2022-09-06T14:03:11.834Z,4.38
2022-09-06T14:05:39.854Z,3.78
2022-09-06T14:08:08.514Z,5.97
2022-09-06T14:10:36.357Z,5.32
2022-09-06T14:13:04.448Z,4.93
2022-09-06T14:15:31.945Z,4.20
2022-09-06T14:17:59.512Z,4.43
2022-09-06T14:20:28.288Z,6.53
2022-09-06T14:22:55.734Z,3.67
2022-09-06T14:25:23.172Z,5.70
2022-09-06T14:27:51.143Z,7.97
2022-09-06T14:30:18.635Z,7.55
2022-09-06T14:32:46.115Z,4.68
2022-09-06T14:35:13.717Z,7.32
2022-09-06T14:37:41.207Z,5.30
2022-09-06T14:40:26.990Z,7.68
2022-09-06T14:42:54.644Z,6.05
2022-09-06T14:45:22.046Z,6.93
2022-09-06T14:47:49.549Z,7.28
2022-09-06T14:50:17.170Z,4.38
2022-09-06T14:52:44.722Z,6.75
2022-09-06T14:55:12.269Z,4.15
2022-09-06T14:57:39.749Z,4.97
2022-09-06T15:00:11.301Z,6.07
2022-09-06T15:02:39.418Z,8.13
2022-09-06T15:05:07.467Z,8.20
2022-09-06T15:07:35.410Z,7.20
2022-09-06T15:10:06.280Z,5.75
2022-09-06T15:12:33.669Z,4.53
2022-09-06T15:15:01.345Z,8.07
2022-09-06T15:17:28.791Z,5.55
2022-09-06T15:19:56.394Z,4.18
2022-09-06T15:22:23.919Z,8.63
2022-09-06T15:24:51.601Z,8.70
2022-09-06T15:27:19.086Z,7.95
2022-09-06T15:29:46.530Z,5.88
2022-09-06T15:32:14.046Z,8.10
2022-09-06T15:34:41.561Z,9.00
2022-09-06T15:37:09.159Z,12.00
2022-09-06T15:39:36.796Z,11.52
2022-09-06T15:42:04.580Z,10.80
2022-09-06T15:44:32.148Z,15.85
2022-09-06T15:46:59.725Z,5.85
2022-09-06T15:49:31.948Z,9.90
2022-09-06T15:52:02.050Z,6.43
2022-09-06T15:54:48.481Z,10.73
2022-09-06T15:57:16.982Z,14.10
2022-09-06T15:59:44.613Z,19.67
2022-09-06T16:02:12.217Z,28.23
2022-09-06T16:04:40.423Z,15.20
2022-09-06T16:07:08.122Z,13.85
2022-09-06T16:09:35.610Z,16.95
2022-09-06T16:12:03.334Z,14.68
2022-09-06T16:14:30.966Z,19.52
2022-09-06T16:16:58.545Z,28.20
2022-09-06T16:19:26.298Z,21.08
2022-09-06T16:21:53.913Z,24.85
2022-09-06T16:24:21.547Z,14.32
2022-09-06T16:26:49.108Z,15.38
2022-09-06T16:29:18.410Z,17.80
2022-09-06T16:31:46.800Z,15.88
2022-09-06T16:34:16.715Z,20.23
2022-09-06T16:36:44.428Z,22.80
2022-09-06T16:39:11.978Z,18.95
2022-09-06T16:41:41.168Z,27.30
2022-09-06T16:44:10.225Z,21.17
2022-09-06T16:46:40.259Z,41.95
2022-09-06T16:49:08.397Z,36.67
2022-09-06T16:51:36.287Z,32.30
2022-09-06T16:54:03.943Z,38.13
2022-09-06T16:56:34.934Z,34.60
2022-09-06T16:59:06.535Z,39.38
2022-09-06T17:01:35.333Z,33.35
2022-09-06T17:04:03.315Z,29.85
2022-09-06T17:06:32.692Z,56.20
2022-09-06T17:09:00.511Z,28.48
2022-09-06T17:11:28.706Z,32.58
2022-09-06T17:13:57.072Z,25.60
2022-09-06T17:16:44.117Z,24.27
2022-09-06T17:19:11.704Z,24.30
2022-09-06T17:21:40.183Z,31.40
2022-09-06T17:24:08.573Z,26.30
2022-09-06T17:26:38.350Z,24.48
2022-09-06T17:29:06.442Z,17.83
2022-09-06T17:31:34.544Z,17.45
2022-09-06T17:34:02.113Z,15.23
2022-09-06T17:36:31.852Z,9.98
2022-09-06T17:39:14.279Z,11.00
2022-09-06T17:41:46.175Z,12.52
2022-09-06T17:44:16.910Z,14.63
2022-09-06T17:47:02.837Z,13.30
2022-09-06T17:49:32.942Z,12.73
2022-09-06T17:52:00.470Z,13.50
2022-09-06T17:54:28.402Z,13.15
2022-09-06T17:56:56.027Z,14.23
2022-09-06T17:59:23.563Z,11.63
2022-09-06T18:01:51.055Z,9.90
2022-09-06T18:04:19.535Z,16.33
2022-09-06T18:06:47.675Z,12.73
2022-09-06T18:09:18.022Z,10.77
2022-09-06T18:11:48.521Z,9.82
2022-09-06T18:14:18.322Z,11.07
2022-09-06T18:17:09.178Z,13.25
2022-09-06T18:19:38.377Z,13.80
2022-09-06T18:22:05.881Z,10.30
2022-09-06T18:24:33.470Z,11.13
2022-09-06T18:27:02.948Z,12.50
2022-09-06T18:29:30.405Z,10.77
2022-09-06T18:31:58.029Z,11.45
2022-09-06T18:34:25.748Z,10.73
2022-09-06T18:36:53.449Z,12.13
2022-09-06T18:39:23.449Z,9.02
2022-09-06T18:42:00.172Z,18.23
2022-09-06T18:44:32.236Z,11.15
2022-09-06T18:47:05.805Z,11.10
2022-09-06T18:49:34.144Z,9.57
2022-09-06T18:52:03.923Z,11.77
2022-09-06T18:54:32.350Z,10.13
2022-09-06T18:57:00.111Z,10.75
2022-09-06T18:59:27.859Z,16.48
2022-09-06T19:01:55.575Z,8.98
2022-09-06T19:04:23.254Z,9.98
2022-09-06T19:06:50.894Z,11.70
2022-09-06T19:09:18.531Z,9.75
2022-09-06T19:11:49.328Z,14.20
2022-09-06T19:14:16.926Z,15.45
2022-09-06T19:16:45.510Z,16.45
2022-09-06T19:19:13.556Z,10.82
2022-09-06T19:21:42.518Z,9.70
2022-09-06T19:24:12.215Z,8.63
2022-09-06T19:26:42.035Z,10.23
2022-09-06T19:29:14.372Z,8.80
2022-09-06T19:31:42.302Z,11.38
2022-09-06T19:34:10.135Z,10.38
2022-09-06T19:36:37.657Z,9.95
2022-09-06T19:39:07.671Z,17.88
2022-09-06T19:41:38.208Z,11.20
2022-09-06T19:44:08.657Z,11.25
2022-09-06T19:46:37.664Z,9.95
2022-09-06T19:49:08.326Z,15.25
2022-09-06T19:51:37.116Z,10.35
2022-09-06T19:54:05.178Z,11.63
2022-09-06T19:56:34.918Z,9.32
2022-09-06T19:59:07.460Z,10.30
2022-09-06T20:01:36.250Z,10.02
2022-09-06T20:04:07.131Z,9.88
2022-09-06T20:06:35.601Z,12.07
2022-09-06T20:09:05.717Z,16.52
2022-09-06T20:11:35.034Z,15.63
2022-09-06T20:14:02.891Z,12.85
2022-09-06T20:16:30.787Z,19.65
2022-09-06T20:18:59.376Z,19.00
2022-09-06T20:21:28.490Z,18.08
2022-09-06T20:23:57.414Z,17.83
2022-09-06T20:26:26.490Z,18.15
2022-09-06T20:28:59.314Z,17.77
2022-09-06T20:31:29.081Z,21.95
2022-09-06T20:33:58.643Z,20.50
2022-09-06T20:36:26.550Z,19.85
2022-09-06T20:38:54.298Z,21.92
2022-09-06T20:41:24.311Z,18.10
2022-09-06T20:43:53.910Z,17.50
2022-09-06T20:46:24.021Z,22.05
2022-09-06T20:48:52.230Z,17.02
2022-09-06T20:51:22.023Z,17.88
2022-09-06T20:53:55.128Z,17.73
2022-09-06T20:56:25.088Z,18.77
2022-09-06T20:58:55.440Z,21.58
2022-09-06T21:01:25.269Z,20.73
2022-09-06T21:03:55.408Z,23.40
2022-09-06T21:06:25.081Z,19.40
2022-09-06T21:08:52.966Z,19.90
2022-09-06T21:11:21.660Z,20.90
2022-09-06T21:13:53.511Z,20.77
2022-09-06T21:16:24.717Z,22.90
2022-09-06T21:18:59.814Z,21.10
2022-09-06T21:21:29.032Z,22.33
2022-09-06T21:23:56.957Z,24.33
2022-09-06T21:26:24.467Z,22.50
2022-09-06T21:28:52.861Z,24.27
2022-09-06T21:31:28.559Z,25.02
2022-09-06T21:33:58.235Z,23.35
2022-09-06T21:36:31.352Z,27.55
2022-09-06T21:39:01.364Z,24.42
2022-09-06T21:41:29.766Z,23.77
2022-09-06T21:43:59.750Z,24.02
2022-09-06T21:46:32.858Z,23.98
2022-09-06T21:49:07.459Z,29.48
2022-09-06T21:51:35.767Z,20.30
2022-09-06T21:54:05.620Z,25.88
2022-09-06T21:56:35.192Z,24.48
2022-09-06T21:59:03.715Z,28.30
2022-09-06T22:01:33.581Z,31.27
2022-09-06T22:04:02.478Z,29.23
2022-09-06T22:06:32.068Z,24.75
2022-09-06T22:09:01.657Z,24.23
2022-09-06T22:11:33.217Z,26.73
2022-09-06T22:14:03.247Z,25.42
2022-09-06T22:16:33.108Z,25.80
2022-09-06T22:19:00.687Z,26.75
2022-09-06T22:21:28.240Z,29.30
2022-09-06T22:23:58.290Z,31.60
2022-09-06T22:26:28.065Z,29.17
2022-09-06T22:29:00.537Z,25.60
2022-09-06T22:31:29.864Z,27.80
2022-09-06T22:33:57.867Z,25.08
2022-09-06T22:36:25.635Z,30.67
2022-09-06T22:38:57.596Z,27.45
2022-09-06T22:41:27.338Z,25.50
2022-09-06T22:43:55.192Z,27.23
2022-09-06T22:46:23.319Z,26.95
2022-09-06T22:48:51.074Z,26.15
2022-09-06T22:51:18.627Z,26.88
2022-09-06T22:53:46.203Z,26.95
2022-09-06T22:56:13.753Z,27.45
2022-09-06T22:58:41.271Z,26.02
2022-09-06T23:01:13.408Z,23.70
2022-09-06T23:03:42.421Z,27.88
2022-09-06T23:06:10.592Z,24.10
2022-09-06T23:08:40.081Z,28.90
2022-09-06T23:11:11.823Z,29.35
2022-09-06T23:13:43.872Z,27.52
2022-09-06T23:16:15.166Z,32.28
2022-09-06T23:21:16.093Z,30.40
2022-09-06T23:23:44.030Z,22.90
2022-09-06T23:26:21.991Z,27.45
2022-09-06T23:28:56.890Z,28.98
2022-09-06T23:31:32.681Z,26.60
2022-09-06T23:34:01.737Z,26.90
2022-09-06T23:36:29.585Z,23.77
2022-09-06T23:38:57.381Z,27.95
2022-09-06T23:41:25.254Z,25.48
2022-09-06T23:43:52.761Z,26.05
2022-09-06T23:46:20.593Z,25.08
2022-09-06T23:48:48.095Z,30.30
2022-09-06T23:51:15.569Z,24.40
2022-09-06T23:53:43.154Z,28.02
2022-09-06T23:56:10.734Z,27.10
2022-09-06T23:58:38.882Z,28.15
